Elk River, MN (55330)

3:46 PM CDT on September 02, 2015 (GMT -0500)
SE Elk River | | Change Station
CLOSE
Current Station
Personal Weather Station
Location: Elk River, MN
Elevation: 954 ft
Nearby Weather Stations

Elev 954 ft 45.32 °N, 93.53 °W | Updated 0 second ago

Overcast
Overcast
73.5 °F
Feels Like 72 °F
N
6.0
Wind Variable Wind from South
Gusts 6.0 mph

Today
High -- | Low -- °F
--% Chance of Precip.
Yesterday
High -- | Low -- °F
Precip. -- in
6:36 AM 7:50 PM
Waning Gibbous, 77% visible
Pressure 29.91 in
Visibility 10.0 miles
Clouds Scattered Clouds 1400 ft
Mostly Cloudy 2700 ft
Heat Index 72 °F
Dew Point 69 °F
Humidity 86%
Rainfall 0.71 in
Snow Depth Not available.
UV 3 out of 12
Pollen 10.00 out of 12
Air Quality Not available.
Flu Activity Not available.
METAR KPNM 022030Z AUTO 12009KT 10SM SCT014 BKN027 25/20 A2991 RMK AO2
Pressure 29.91 in
Visibility 10.0 miles
Clouds Scattered Clouds 1400 ft
Mostly Cloudy 2700 ft
Heat Index 72 °F
Dew Point 69 °F
Humidity 86%
Rainfall 0.71 in
Snow Depth Not available.
UV 3 out of 12
Pollen 10.00 out of 12
Air Quality Not available.
Flu Activity Not available.
METAR KPNM 022030Z AUTO 12009KT 10SM SCT014 BKN027 25/20 A2991 RMK AO2

10-Day Weather Forecast

×

Almanac

Astronomy

Sep. 02, 2015 Rise Set
Actual Time
Civil Twilight
Nautical Twilight
Astronomical Twilight
Moon
Length of Visible Light
Length of Day
Tomorrow will be .
, % of the Moon is Illuminated

Today's Extremes

State Highs State Lows

Community

WunderPhotos

Upload Photos

1,851,806 photos uploaded!

WunderBlogs® & News

Nearby

Air Quality

  Air Quality AQ Index Pollutant
Not available.

Snow Depth

Station Depth Elevation

Earthquake Activity

City Distance Mag. Time & Date
Minimum magnitude displayed is 2.5.

Coastal Water Temperatures

Place Temperature

Stations

Nearby Weather Stations

Station Location Temp. Windchill Dew Point Humidity Wind Precip. Elev Updated Type